Time;durP1;ratioP1;P1;durP2;ratioP2;P2;SDS_P1;SDS_P2;PMS_P1;PMS_P2;Temp;Humidity;BMP_temperature;BMP_pressure;BME280_temperature;BME280_humidity;BME280_pressure;Samples;Min_cycle;Max_cycle;Signal;HPM_P1;HPM_P2
2023/07/04 00:01:35;;;;;;;15.27;14.17;;;17.30;99.90;;;;;;2613970;54;20387;-72
2023/07/04 00:07:23;;;;;;;15.57;14.30;;;17.10;99.90;;;;;;2612036;54;20151;-72
2023/07/04 00:10:26;;;;;;;16.10;14.90;;;17.10;99.90;;;;;;2612962;54;20515;-72
2023/07/04 00:12:52;;;;;;;18.63;16.80;;;17.00;99.90;;;;;;2612776;51;20735;-72
2023/07/04 00:18:41;;;;;;;14.93;13.90;;;17.00;99.90;;;;;;2613016;54;20134;-73
2023/07/04 00:24:29;;;;;;;14.97;14.03;;;17.00;99.90;;;;;;2614071;54;20394;-73
2023/07/04 00:30:16;;;;;;;15.63;14.43;;;17.00;99.90;;;;;;2614177;54;20134;-73
2023/07/04 00:36:07;;;;;;;15.33;14.27;;;17.00;99.90;;;;;;2612175;54;20496;-72
2023/07/04 00:41:55;;;;;;;15.50;13.47;;;16.90;99.90;;;;;;2614685;54;20387;-72
2023/07/04 00:47:46;;;;;;;15.10;13.60;;;16.90;99.90;;;;;;2613880;54;20632;-72
2023/07/04 00:53:35;;;;;;;15.27;14.10;;;16.70;99.90;;;;;;2612135;54;20371;-71
2023/07/04 00:59:23;;;;;;;15.80;14.60;;;16.60;99.90;;;;;;2613638;54;20390;-72
2023/07/04 01:05:14;;;;;;;15.13;14.13;;;16.50;99.90;;;;;;2613811;39;20753;-71
2023/07/04 01:15:05;;;;;;;14.67;13.53;;;16.20;99.90;;;;;;2613150;54;20422;-72
2023/07/04 01:20:53;;;;;;;15.93;14.63;;;16.10;99.90;;;;;;2613226;54;20419;-72
2023/07/04 01:26:45;;;;;;;14.83;13.63;;;16.10;99.90;;;;;;2612943;54;20138;-73
2023/07/04 01:32:34;;;;;;;14.47;13.07;;;16.00;99.90;;;;;;2612887;54;20489;-72
2023/07/04 01:38:21;;;;;;;13.70;12.70;;;16.10;99.90;;;;;;2613247;54;20427;-72
2023/07/04 01:44:09;;;;;;;14.27;13.07;;;15.90;99.90;;;;;;2613888;54;20122;-72
2023/07/04 01:49:57;;;;;;;16.00;13.30;;;16.00;99.90;;;;;;2615203;39;20450;-73
2023/07/04 01:55:45;;;;;;;13.10;12.30;;;15.90;99.90;;;;;;2614376;54;20425;-71
2023/07/04 02:01:33;;;;;;;13.83;12.83;;;15.80;99.90;;;;;;2614676;54;20122;-71
2023/07/04 02:07:21;;;;;;;16.23;12.70;;;15.70;99.90;;;;;;2611983;39;20466;-72
2023/07/04 02:10:36;;;;;;;14.43;13.07;;;15.70;99.90;;;;;;2612661;47;20974;-72
2023/07/04 02:13:02;;;;;;;13.03;11.80;;;15.60;99.90;;;;;;2614660;47;20174;-72
2023/07/04 02:18:50;;;;;;;18.13;11.90;;;15.60;99.90;;;;;;2613437;39;20538;-71
2023/07/04 02:24:37;;;;;;;12.17;11.27;;;15.50;99.90;;;;;;2615268;54;20166;-72
2023/07/04 02:30:25;;;;;;;12.00;10.80;;;15.40;99.90;;;;;;2613097;46;20142;-73
2023/07/04 02:36:13;;;;;;;13.07;11.90;;;15.30;99.90;;;;;;2614231;54;20123;-73
2023/07/04 02:42:01;;;;;;;15.93;11.80;;;15.20;99.90;;;;;;2614617;54;20157;-72
2023/07/04 02:47:49;;;;;;;18.43;11.73;;;15.10;99.90;;;;;;2615070;39;20538;-69
2023/07/04 02:53:36;;;;;;;11.40;10.50;;;15.20;99.90;;;;;;2614651;54;20150;-73
2023/07/04 02:59:24;;;;;;;14.47;10.10;;;15.20;99.90;;;;;;2613583;54;20121;-72
2023/07/04 03:05:12;;;;;;;13.53;12.20;;;15.00;99.90;;;;;;2615160;54;20144;-72
2023/07/04 03:15:06;;;;;;;16.60;11.07;;;14.90;99.90;;;;;;2614817;54;20431;-72
2023/07/04 03:20:53;;;;;;;12.93;10.23;;;15.00;99.90;;;;;;2614450;54;20370;-72
2023/07/04 03:26:45;;;;;;;10.83;9.73;;;15.00;99.90;;;;;;2614617;54;20134;-72
2023/07/04 03:32:33;;;;;;;12.33;10.53;;;15.20;99.90;;;;;;2613461;54;20414;-73
2023/07/04 03:38:21;;;;;;;19.30;10.70;;;15.10;99.90;;;;;;2612868;39;20481;-72
2023/07/04 03:44:09;;;;;;;12.67;10.50;;;14.90;99.90;;;;;;2612533;39;20638;-72
2023/07/04 03:49:57;;;;;;;12.17;9.47;;;14.90;99.90;;;;;;2613402;54;20161;-72
2023/07/04 03:55:45;;;;;;;19.83;10.00;;;14.90;99.90;;;;;;2613748;54;20392;-72
2023/07/04 04:01:32;;;;;;;13.77;9.90;;;14.80;99.90;;;;;;2614686;54;20249;-72
2023/07/04 04:07:20;;;;;;;13.13;9.13;;;14.80;99.90;;;;;;2614693;54;20154;-72
2023/07/04 04:10:36;;;;;;;12.77;9.30;;;14.80;99.90;;;;;;2614002;54;20423;-72
2023/07/04 04:13:02;;;;;;;23.57;11.50;;;14.80;99.90;;;;;;2612432;54;20424;-72
2023/07/04 04:18:51;;;;;;;13.10;9.40;;;14.90;99.90;;;;;;2614445;54;20126;-72
2023/07/04 04:24:40;;;;;;;15.17;9.20;;;15.00;99.90;;;;;;2614059;54;20405;-73
2023/07/04 04:30:28;;;;;;;14.13;10.33;;;14.90;99.90;;;;;;2612666;54;20380;-75
2023/07/04 04:36:17;;;;;;;13.73;9.83;;;14.90;99.90;;;;;;2612136;54;20130;-73
2023/07/04 04:42:05;;;;;;;8.57;7.77;;;15.00;99.90;;;;;;2614473;54;20383;-72
2023/07/04 04:47:53;;;;;;;13.50;9.20;;;15.10;99.90;;;;;;2613727;54;20395;-73
2023/07/04 04:53:44;;;;;;;12.77;9.50;;;15.30;99.90;;;;;;2611541;54;20379;-73
2023/07/04 04:59:32;;;;;;;9.63;8.43;;;15.40;99.90;;;;;;2613698;54;20423;-73
2023/07/04 05:05:19;;;;;;;14.97;9.80;;;15.50;99.90;;;;;;2615238;54;20629;-72
2023/07/04 05:15:10;;;;;;;11.63;10.63;;;15.80;99.90;;;;;;2613423;54;20922;-72
2023/07/04 05:21:03;;;;;;;23.97;11.47;;;16.00;99.90;;;;;;2612957;54;20407;-73
2023/07/04 05:26:51;;;;;;;12.60;9.73;;;16.10;99.90;;;;;;2611393;54;20540;-73
2023/07/04 05:32:39;;;;;;;16.03;8.70;;;16.10;99.90;;;;;;2613197;54;20351;-73
2023/07/04 05:38:27;;;;;;;9.77;8.77;;;16.30;99.90;;;;;;2613936;54;20134;-72
2023/07/04 05:44:17;;;;;;;17.83;10.50;;;16.20;99.90;;;;;;2612746;54;20158;-72
2023/07/04 05:50:05;;;;;;;14.60;10.80;;;16.50;99.90;;;;;;2611723;54;21449;-72
2023/07/04 05:59:26;;;;;;;13.20;10.40;;;16.60;99.90;;;;;;2611738;54;20415;-73
2023/07/04 06:01:51;;;;;;;19.30;11.33;;;17.00;99.90;;;;;;2610400;54;20431;-72
2023/07/04 06:07:39;;;;;;;17.67;11.40;;;16.60;99.90;;;;;;2610396;54;20130;-72
2023/07/04 06:10:37;;;;;;;12.63;11.30;;;16.20;99.90;;;;;;2612712;47;20412;-71
2023/07/04 06:13:03;;;;;;;12.70;11.17;;;16.90;99.90;;;;;;2611228;54;20162;-72
2023/07/04 06:18:50;;;;;;;14.00;12.60;;;16.70;99.90;;;;;;2614172;54;20138;-72
2023/07/04 06:24:38;;;;;;;14.10;12.63;;;17.10;99.90;;;;;;2614883;54;20131;-72
2023/07/04 06:30:29;;;;;;;15.27;12.37;;;17.60;99.90;;;;;;2610293;54;20168;-72
2023/07/04 06:36:19;;;;;;;15.70;13.50;;;17.70;99.90;;;;;;2611283;54;20387;-72
2023/07/04 06:42:07;;;;;;;14.10;12.70;;;17.80;99.90;;;;;;2611625;54;23182;-73
2023/07/04 06:47:54;;;;;;;23.20;16.80;;;18.00;99.90;;;;;;2614431;54;20123;-73
2023/07/04 06:53:43;;;;;;;18.03;16.40;;;18.00;99.90;;;;;;2613636;54;20139;-72
2023/07/04 06:59:30;;;;;;;15.20;13.70;;;18.30;99.90;;;;;;2612838;54;20427;-72
2023/07/04 07:05:18;;;;;;;14.60;13.30;;;18.30;99.90;;;;;;2608470;54;20155;-73
2023/07/04 07:15:05;;;;;;;15.07;13.80;;;17.90;99.90;;;;;;2614609;39;20859;-72
2023/07/04 07:20:58;;;;;;;16.47;14.97;;;19.00;99.90;;;;;;2613351;54;20382;-72
2023/07/04 07:26:45;;;;;;;17.07;15.60;;;19.10;99.90;;;;;;2614652;39;20853;-73
2023/07/04 07:32:33;;;;;;;15.57;13.93;;;18.70;99.90;;;;;;2615803;54;20125;-73
2023/07/04 07:38:21;;;;;;;15.03;13.97;;;19.40;99.90;;;;;;2614239;54;20130;-72
2023/07/04 07:44:09;;;;;;;16.77;15.13;;;19.10;99.90;;;;;;2613597;54;20763;-72
2023/07/04 07:49:57;;;;;;;15.93;14.63;;;20.00;99.90;;;;;;2610884;54;20408;-72
2023/07/04 07:55:45;;;;;;;15.53;14.13;;;19.80;99.90;;;;;;2610327;54;20119;-72
2023/07/04 08:01:33;;;;;;;16.83;15.50;;;19.50;99.90;;;;;;2612347;54;20154;-72
2023/07/04 08:07:21;;;;;;;16.63;15.07;;;20.00;99.90;;;;;;2613016;54;20395;-72
2023/07/04 08:10:38;;;;;;;17.47;16.07;;;20.50;99.90;;;;;;2612556;39;20871;-73
2023/07/04 08:13:04;;;;;;;16.93;15.73;;;20.20;99.90;;;;;;2610519;54;20154;-72
2023/07/04 08:18:52;;;;;;;17.17;15.77;;;20.50;99.90;;;;;;2608189;54;20415;-72
2023/07/04 08:24:40;;;;;;;16.90;15.67;;;20.40;99.90;;;;;;2610371;54;20134;-72
2023/07/04 08:30:27;;;;;;;14.80;13.80;;;19.30;99.90;;;;;;2615027;39;20597;-72
2023/07/04 08:36:16;;;;;;;14.60;13.50;;;19.50;99.90;;;;;;2614410;54;20166;-72
2023/07/04 08:42:06;;;;;;;14.07;12.87;;;20.50;97.60;;;;;;2614468;54;20402;-73
2023/07/04 08:47:56;;;;;;;15.13;13.97;;;20.80;84.60;;;;;;2614337;54;20937;-72
2023/07/04 08:53:49;;;;;;;15.73;14.40;;;20.00;75.10;;;;;;2613749;54;20403;-73
2023/07/04 08:59:40;;;;;;;15.90;14.50;;;20.10;64.50;;;;;;2613338;54;20958;-71
2023/07/04 09:05:33;;;;;;;15.60;14.50;;;20.60;61.00;;;;;;2613418;54;20363;-73
2023/07/04 09:15:14;;;;;;;15.77;14.63;;;21.20;53.40;;;;;;2612295;39;20765;-73
2023/07/04 09:21:18;;;;;;;15.00;14.10;;;22.20;45.40;;;;;;2614765;39;20827;-72
2023/07/04 09:27:06;;;;;;;16.30;15.20;;;20.80;39.10;;;;;;2614823;54;20897;-72
2023/07/04 09:32:54;;;;;;;15.43;14.33;;;20.90;44.00;;;;;;2614832;39;20776;-72
2023/07/04 09:38:51;;;;;;;17.80;16.80;;;20.80;33.90;;;;;;2609697;54;20130;-73
2023/07/04 09:44:39;;;;;;;14.90;13.60;;;21.30;34.90;;;;;;2614277;39;20493;-72
2023/07/04 09:50:32;;;;;;;15.13;14.10;;;22.30;30.10;;;;;;2612296;54;20158;-73
2023/07/04 09:56:26;;;;;;;15.33;14.43;;;21.80;29.20;;;;;;2613463;39;20892;-72
2023/07/04 10:08:53;;;;;;;15.77;14.77;;;22.30;24.60;;;;;;2614537;54;20961;-72
2023/07/04 10:14:47;;;;;;;15.90;14.93;;;22.40;22.80;;;;;;2611797;54;21172;-73
2023/07/04 10:20:39;;;;;;;14.80;14.10;;;22.50;21.80;;;;;;2613391;54;20419;-73
2023/07/04 10:26:29;;;;;;;16.57;15.47;;;21.90;16.50;;;;;;2614775;54;20974;-74
2023/07/04 10:32:17;;;;;;;15.30;14.30;;;22.40;17.80;;;;;;2614816;54;20447;-74
2023/07/04 10:44:37;;;;;;;16.37;15.20;;;23.00;15.80;;;;;;2614584;46;20415;-73
2023/07/04 10:56:44;;;;;;;15.10;14.40;;;23.10;17.30;;;;;;2612277;39;20784;-73
2023/07/04 11:02:52;;;;;;;16.47;15.67;;;23.00;13.90;;;;;;2614749;54;20391;-73
2023/07/04 11:08:41;;;;;;;16.60;15.33;;;22.90;11.50;;;;;;2614560;54;20384;-73
2023/07/04 11:14:30;;;;;;;16.20;15.03;;;23.10;9.20;;;;;;2614587;54;20387;-73
2023/07/04 11:20:23;;;;;;;15.30;14.50;;;22.80;9.00;;;;;;2610623;54;20439;-73
2023/07/04 11:26:10;;;;;;;17.20;16.07;;;23.00;10.50;;;;;;2614571;54;20394;-73
2023/07/04 11:32:04;;;;;;;17.93;16.93;;;23.60;9.70;;;;;;2614615;54;20214;-74
2023/07/04 11:38:02;;;;;;;16.47;15.47;;;24.00;5.80;;;;;;2614296;54;20419;-74
2023/07/04 11:43:51;;;;;;;15.57;14.77;;;24.00;6.80;;;;;;2614657;54;20395;-73
2023/07/04 11:49:39;;;;;;;16.20;15.20;;;23.50;6.10;;;;;;2614897;54;20391;-73
2023/07/04 11:55:31;;;;;;;16.00;15.10;;;24.30;4.20;;;;;;2612362;54;20159;-72
2023/07/04 11:58:34;;;;;;;16.50;15.70;;;24.00;3.80;;;;;;2613002;47;20527;-72
2023/07/04 12:01:02;;;;;;;16.73;15.73;;;24.40;4.20;;;;;;2614117;39;20755;-74
2023/07/04 12:06:54;;;;;;;16.40;15.50;;;23.70;1.00;;;;;;2614457;54;20476;-74
2023/07/04 12:16:04;;;;;;;15.33;14.50;;;23.70;6.10;;;;;;2611258;54;20483;-73
2023/07/04 12:21:52;;;;;;;17.57;16.20;;;22.50;9.20;;;;;;2614854;54;20411;-73
2023/07/04 12:27:42;;;;;;;16.73;15.73;;;22.90;12.30;;;;;;2613999;54;20483;-73
2023/07/04 12:33:32;;;;;;;16.70;15.60;;;23.00;9.00;;;;;;2605384;39;20866;-73
2023/07/04 12:39:20;;;;;;;17.43;15.90;;;23.40;12.10;;;;;;2612643;39;20897;-73
2023/07/04 12:42:24;;;;;;;19.33;17.23;;;23.20;11.30;;;;;;2612119;54;20510;-74
2023/07/04 12:44:51;;;;;;;17.77;16.20;;;23.10;10.10;;;;;;2612369;54;20151;-73
2023/07/04 12:50:45;;;;;;;17.73;16.50;;;22.60;11.70;;;;;;2610337;54;20913;-73
2023/07/04 12:56:34;;;;;;;18.00;16.47;;;22.00;12.60;;;;;;2611226;54;20515;-73
2023/07/04 13:02:27;;;;;;;17.60;16.60;;;22.90;14.70;;;;;;2605685;54;20407;-74
2023/07/04 13:08:22;;;;;;;17.37;16.37;;;22.40;11.00;;;;;;2612679;54;20395;-73
2023/07/04 13:11:25;;;;;;;16.20;15.27;;;22.20;13.50;;;;;;2612510;54;20399;-74
2023/07/04 13:20:16;;;;;;;17.70;16.90;;;22.30;12.10;;;;;;2610358;54;20394;-73
2023/07/04 13:32:25;;;;;;;18.30;17.20;;;23.10;14.80;;;;;;2611505;54;20419;-74
2023/07/04 13:38:13;;;;;;;17.33;16.10;;;23.10;12.00;;;;;;2610322;46;20893;-73
2023/07/04 13:44:00;;;;;;;18.90;17.37;;;22.60;13.80;;;;;;2612466;54;20129;-73
2023/07/04 13:49:48;;;;;;;18.20;16.70;;;23.20;13.70;;;;;;2613200;39;20501;-72
2023/07/04 13:55:35;;;;;;;18.23;17.10;;;22.30;12.60;;;;;;2613738;54;20130;-73
2023/07/04 14:01:24;;;;;;;19.30;18.00;;;23.10;14.00;;;;;;2612600;54;20329;-73
2023/07/04 14:07:12;;;;;;;18.33;17.20;;;23.70;10.20;;;;;;2611074;54;20415;-73
2023/07/04 14:16:28;;;;;;;18.87;17.67;;;24.60;10.20;;;;;;2612207;54;20427;-74
2023/07/04 14:22:16;;;;;;;19.37;18.20;;;24.20;4.60;;;;;;2611842;54;20391;-72
2023/07/04 14:28:03;;;;;;;19.70;18.20;;;24.50;3.20;;;;;;2613547;54;20130;-73
2023/07/04 14:33:51;;;;;;;19.50;18.30;;;23.40;7.00;;;;;;2612742;54;20134;-73
2023/07/04 14:39:39;;;;;;;20.30;18.70;;;24.10;7.70;;;;;;2608920;54;20134;-73
2023/07/04 14:45:27;;;;;;;20.90;19.40;;;23.50;7.20;;;;;;2611020;54;20499;-74
2023/07/04 14:51:15;;;;;;;19.13;18.00;;;23.50;8.30;;;;;;2613997;54;20165;-74
2023/07/04 14:57:04;;;;;;;21.07;19.60;;;23.80;6.30;;;;;;2612302;54;20223;-73
2023/07/04 15:02:51;;;;;;;20.20;18.90;;;23.90;7.30;;;;;;2613067;54;20399;-73
2023/07/04 15:08:39;;;;;;;20.50;19.20;;;24.10;6.40;;;;;;2613778;54;20126;-73
2023/07/04 15:14:38;;;;;;;20.23;19.00;;;23.30;4.40;;;;;;2607215;54;20685;-73
2023/07/04 15:20:26;;;;;;;20.67;19.23;;;23.50;7.70;;;;;;2606665;54;20131;-73
2023/07/04 15:26:14;;;;;;;20.47;19.00;;;23.20;7.40;;;;;;2608060;46;20690;-73
2023/07/04 15:32:02;;;;;;;21.13;19.93;;;23.80;8.20;;;;;;2611249;54;20408;-72
2023/07/04 15:37:50;;;;;;;21.70;20.17;;;23.50;5.40;;;;;;2611443;54;20499;-73
2023/07/04 15:43:38;;;;;;;21.20;19.80;;;23.50;5.90;;;;;;2612709;54;20657;-73
2023/07/04 15:49:25;;;;;;;21.10;19.60;;;23.60;6.00;;;;;;2611026;54;21061;-73
2023/07/04 15:55:13;;;;;;;20.23;19.13;;;23.40;4.10;;;;;;2613242;46;20244;-73
2023/07/04 16:01:03;;;;;;;21.43;20.03;;;23.30;4.20;;;;;;2612905;54;20391;-73
2023/07/04 16:06:53;;;;;;;20.40;19.10;;;23.50;4.60;;;;;;2614967;31;20883;-73
2023/07/04 16:16:27;;;;;;;21.73;20.33;;;23.40;5.90;;;;;;2612990;54;20531;-73
2023/07/04 16:22:15;;;;;;;21.40;19.90;;;23.10;5.70;;;;;;2614033;54;20415;-73
2023/07/04 16:28:03;;;;;;;19.83;18.60;;;23.70;7.40;;;;;;2612882;54;20668;-73
2023/07/04 16:33:51;;;;;;;19.03;17.73;;;23.40;6.30;;;;;;2612175;54;20182;-73
2023/07/04 16:39:38;;;;;;;20.70;19.23;;;23.50;6.60;;;;;;2614437;54;20957;-73
2023/07/04 16:45:26;;;;;;;21.30;20.00;;;22.90;10.60;;;;;;2614355;54;20158;-73
2023/07/04 16:51:14;;;;;;;21.93;20.40;;;22.60;11.70;;;;;;2612633;54;20387;-71
2023/07/04 16:57:04;;;;;;;22.30;20.97;;;22.80;12.80;;;;;;2614097;54;20407;-73
2023/07/04 17:02:54;;;;;;;22.37;21.07;;;22.50;14.10;;;;;;2614867;39;20742;-73
2023/07/04 17:08:42;;;;;;;22.10;20.60;;;22.50;14.90;;;;;;2614302;54;20415;-73
2023/07/04 17:11:54;;;;;;;22.13;20.60;;;22.50;14.80;;;;;;2613104;46;20415;-72
2023/07/04 17:14:20;;;;;;;21.23;20.00;;;22.50;16.90;;;;;;2615032;54;20423;-74
2023/07/04 17:20:08;;;;;;;21.70;20.40;;;22.50;15.70;;;;;;2615218;54;20242;-72
2023/07/04 17:25:56;;;;;;;19.87;18.57;;;22.50;17.90;;;;;;2614925;54;20475;-73
2023/07/04 17:31:43;;;;;;;20.63;19.53;;;22.30;19.00;;;;;;2615302;39;20508;-73
2023/07/04 17:37:32;;;;;;;20.90;19.43;;;22.50;18.90;;;;;;2614525;54;20130;-72
2023/07/04 17:43:19;;;;;;;20.43;19.23;;;22.40;20.10;;;;;;2613200;54;20818;-72
2023/07/04 17:49:08;;;;;;;21.03;19.40;;;22.20;19.80;;;;;;2612786;54;20668;-73
2023/07/04 17:54:57;;;;;;;19.93;18.40;;;21.90;24.10;;;;;;2612201;54;20407;-74
2023/07/04 18:00:45;;;;;;;20.87;19.47;;;22.00;24.80;;;;;;2611324;54;20399;-72
2023/07/04 18:06:34;;;;;;;20.37;18.97;;;21.80;27.90;;;;;;2613887;54;20913;-70
2023/07/04 18:16:30;;;;;;;21.13;19.83;;;21.60;30.80;;;;;;2613826;39;20828;-70
2023/07/04 18:22:17;;;;;;;20.77;19.57;;;21.70;32.30;;;;;;2613959;54;20399;-71
2023/07/04 18:28:05;;;;;;;20.60;19.10;;;21.60;29.70;;;;;;2614299;54;20142;-70
2023/07/04 18:33:58;;;;;;;23.03;21.20;;;21.30;31.10;;;;;;2613216;54;20383;-70
2023/07/04 18:39:45;;;;;;;19.93;18.77;;;21.30;32.30;;;;;;2613342;54;20422;-70
2023/07/04 18:45:40;;;;;;;22.77;21.17;;;21.20;36.80;;;;;;2614113;54;20127;-71
2023/07/04 18:57:45;;;;;;;20.37;18.77;;;21.00;41.80;;;;;;2615053;54;20886;-71
2023/07/04 19:03:33;;;;;;;21.10;19.80;;;20.80;76.10;;;;;;2614462;54;20194;-71
2023/07/04 19:09:21;;;;;;;13.90;10.40;;;20.40;99.90;;;;;;2615046;54;20222;-70
2023/07/04 19:11:54;;;;;;;17.40;11.83;;;20.00;99.90;;;;;;2613894;54;20431;-71
2023/07/04 19:14:21;;;;;;;17.00;12.90;;;19.60;99.90;;;;;;2614099;54;20214;-71
2023/07/04 19:20:09;;;;;;;13.27;10.50;;;19.20;99.90;;;;;;2614892;54;21060;-71
2023/07/04 19:25:57;;;;;;;11.87;10.57;;;19.00;99.90;;;;;;2614274;54;20701;-71
2023/07/04 19:31:50;;;;;;;13.57;11.40;;;18.60;99.90;;;;;;2609626;54;20139;-71
2023/07/04 19:37:39;;;;;;;14.10;12.57;;;18.50;99.90;;;;;;2613739;54;20463;-71
2023/07/04 19:43:28;;;;;;;12.10;10.83;;;18.30;99.90;;;;;;2612120;39;20824;-70
2023/07/04 19:49:18;;;;;;;13.10;11.70;;;18.30;99.90;;;;;;2613441;54;20383;-70
2023/07/04 19:55:05;;;;;;;13.27;11.83;;;18.10;99.90;;;;;;2611710;54;21173;-71
2023/07/04 20:00:53;;;;;;;14.53;12.17;;;17.90;99.90;;;;;;2611977;39;20777;-69
2023/07/04 20:06:43;;;;;;;17.80;11.97;;;17.90;99.90;;;;;;2614580;54;20254;-70
2023/07/04 20:16:28;;;;;;;17.13;13.63;;;17.90;99.90;;;;;;2612309;54;20431;-70
2023/07/04 20:22:16;;;;;;;14.13;12.17;;;17.80;99.90;;;;;;2613836;54;20428;-69
2023/07/04 20:28:05;;;;;;;17.50;13.50;;;17.80;99.90;;;;;;2611466;54;20138;-70
2023/07/04 20:33:53;;;;;;;28.50;22.70;;;17.60;99.90;;;;;;2614212;54;20395;-70
2023/07/04 20:39:42;;;;;;;16.23;14.10;;;17.40;99.90;;;;;;2613719;54;20155;-69
2023/07/04 20:45:30;;;;;;;15.50;13.93;;;17.40;99.90;;;;;;2613751;54;20391;-70
2023/07/04 20:51:17;;;;;;;22.43;19.50;;;17.30;99.90;;;;;;2614548;54;20166;-70
2023/07/04 20:57:06;;;;;;;18.60;16.67;;;17.20;99.90;;;;;;2614164;54;20158;-71
2023/07/04 21:02:54;;;;;;;25.53;20.70;;;17.20;99.90;;;;;;2614953;54;20468;-71
2023/07/04 21:08:42;;;;;;;17.37;15.53;;;17.20;99.90;;;;;;2614699;54;20395;-70
2023/07/04 21:11:57;;;;;;;17.17;15.40;;;17.20;99.90;;;;;;2614349;54;20419;-70
2023/07/04 21:14:24;;;;;;;17.67;15.07;;;17.20;99.90;;;;;;2614675;54;20431;-70
2023/07/04 21:20:12;;;;;;;17.53;15.80;;;17.10;99.90;;;;;;2614521;39;20780;-70
2023/07/04 21:26:00;;;;;;;15.90;14.40;;;17.10;99.90;;;;;;2613081;54;20122;-71
2023/07/04 21:31:47;;;;;;;16.23;14.53;;;17.00;99.90;;;;;;2613442;54;20641;-69
2023/07/04 21:37:35;;;;;;;20.30;16.27;;;16.90;99.90;;;;;;2613650;54;20138;-69
2023/07/04 21:43:23;;;;;;;16.57;14.97;;;16.90;99.90;;;;;;2614019;54;20152;-70
2023/07/04 21:49:11;;;;;;;16.53;14.97;;;16.90;99.90;;;;;;2612520;54;20259;-70
2023/07/04 21:54:59;;;;;;;16.10;14.60;;;16.90;99.90;;;;;;2614616;54;21243;-69
2023/07/04 22:00:48;;;;;;;19.77;15.40;;;16.90;99.90;;;;;;2613282;54;20130;-70
2023/07/04 22:06:36;;;;;;;17.00;15.20;;;17.00;99.90;;;;;;2614999;54;20371;-70
2023/07/04 22:16:29;;;;;;;14.73;12.10;;;17.00;99.90;;;;;;2615651;39;20805;-69
2023/07/04 22:22:17;;;;;;;21.83;14.50;;;17.00;99.90;;;;;;2613728;54;20469;-69
2023/07/04 22:28:05;;;;;;;15.00;13.60;;;17.00;99.90;;;;;;2613782;54;20155;-69
2023/07/04 22:34:05;;;;;;;17.33;15.07;;;17.00;99.90;;;;;;2612644;54;20134;-70
2023/07/04 22:39:52;;;;;;;19.77;15.20;;;17.10;99.90;;;;;;2614704;54;21380;-68
2023/07/04 22:45:50;;;;;;;15.40;14.00;;;17.10;99.90;;;;;;2613081;54;20126;-70
2023/07/04 22:51:37;;;;;;;16.80;14.97;;;17.10;99.90;;;;;;2614192;54;20408;-71
2023/07/04 22:57:26;;;;;;;20.53;13.83;;;17.00;99.90;;;;;;2615471;54;20162;-70
2023/07/04 23:03:14;;;;;;;15.27;13.67;;;17.00;99.90;;;;;;2614487;54;21273;-70
2023/07/04 23:09:01;;;;;;;15.17;13.60;;;17.00;99.90;;;;;;2614760;54;20387;-70
2023/07/04 23:11:58;;;;;;;15.03;13.33;;;17.00;99.90;;;;;;2613200;54;20435;-70
2023/07/04 23:14:24;;;;;;;13.57;12.20;;;17.00;99.90;;;;;;2613864;47;20194;-69
2023/07/04 23:20:12;;;;;;;17.50;12.87;;;16.90;99.90;;;;;;2612729;54;20111;-70
2023/07/04 23:32:24;;;;;;;13.57;12.17;;;16.80;99.90;;;;;;2614158;54;20395;-70
2023/07/04 23:38:11;;;;;;;13.63;12.23;;;16.80;99.90;;;;;;2613182;54;20147;-69
2023/07/04 23:43:59;;;;;;;12.27;11.07;;;16.90;99.90;;;;;;2615191;54;20150;-70
2023/07/04 23:49:47;;;;;;;13.20;11.17;;;17.10;99.90;;;;;;2613524;39;20564;-70
2023/07/04 23:55:35;;;;;;;12.20;11.00;;;17.20;99.90;;;;;;2614977;54;20147;-71
